createdAt,value
2022-08-17T00:02:25.506Z,83.50
2022-08-17T00:04:54.396Z,83.70
2022-08-17T00:07:21.373Z,83.30
2022-08-17T00:09:48.130Z,83.70
2022-08-17T00:12:42.767Z,84.20
2022-08-17T00:15:02.178Z,83.30
2022-08-17T00:17:29.111Z,84.00
2022-08-17T00:19:55.831Z,83.00
2022-08-17T00:22:34.559Z,83.70
2022-08-17T00:25:07.321Z,82.80
2022-08-17T00:27:34.649Z,83.50
2022-08-17T00:30:01.475Z,83.10
2022-08-17T00:33:12.019Z,83.90
2022-08-17T00:35:17.731Z,83.40
2022-08-17T00:37:44.498Z,83.40
2022-08-17T00:40:13.958Z,83.90
2022-08-17T00:42:41.407Z,84.20
2022-08-17T00:45:11.274Z,83.70
2022-08-17T00:47:38.089Z,82.90
2022-08-17T00:50:08.328Z,83.50
2022-08-17T00:52:42.326Z,82.30
2022-08-17T00:55:10.272Z,83.30
2022-08-17T00:57:41.633Z,83.10
2022-08-17T01:00:14.375Z,83.40
2022-08-17T01:02:44.014Z,83.40
2022-08-17T01:05:18.661Z,82.90
2022-08-17T01:07:47.874Z,83.00
2022-08-17T01:10:57.124Z,82.70
2022-08-17T01:13:04.476Z,84.40
2022-08-17T01:15:37.543Z,83.70
2022-08-17T01:18:07.829Z,83.40
2022-08-17T01:20:46.664Z,84.50
2022-08-17T01:23:16.466Z,83.50
2022-08-17T01:25:51.136Z,83.30
2022-08-17T01:28:33.418Z,83.30
2022-08-17T01:31:07.737Z,83.50
2022-08-17T01:33:34.764Z,83.60
2022-08-17T01:36:01.830Z,84.00
2022-08-17T01:38:31.753Z,84.30
2022-08-17T01:41:06.597Z,82.30
2022-08-17T01:43:40.015Z,83.90
2022-08-17T01:46:06.871Z,85.20
2022-08-17T01:48:35.566Z,85.40
2022-08-17T01:51:02.719Z,85.70
2022-08-17T01:53:35.024Z,83.50
2022-08-17T01:56:09.580Z,85.90
2022-08-17T01:58:37.574Z,84.00
2022-08-17T02:01:05.976Z,83.00
2022-08-17T02:03:34.528Z,83.80
2022-08-17T02:06:01.962Z,82.60
2022-08-17T02:08:36.909Z,83.40
2022-08-17T02:11:11.893Z,83.00
2022-08-17T02:13:38.947Z,82.70
2022-08-17T02:16:06.228Z,82.90
2022-08-17T02:18:33.081Z,83.20
2022-08-17T02:21:00.394Z,84.80
2022-08-17T02:23:30.362Z,84.60
2022-08-17T02:25:59.342Z,84.60
2022-08-17T02:28:26.236Z,84.80
2022-08-17T02:31:01.488Z,88.30
2022-08-17T02:33:41.932Z,85.10
2022-08-17T02:36:12.557Z,84.80
2022-08-17T02:38:40.139Z,84.30
2022-08-17T02:41:07.817Z,84.50
2022-08-17T02:43:35.179Z,84.00
2022-08-17T02:46:02.017Z,86.80
2022-08-17T02:48:31.104Z,86.00
2022-08-17T02:50:59.659Z,86.70
2022-08-17T02:53:26.639Z,85.50
2022-08-17T02:55:53.996Z,86.40
2022-08-17T02:58:34.505Z,86.70
2022-08-17T03:01:07.074Z,85.20
2022-08-17T03:03:34.107Z,89.60
2022-08-17T03:06:01.217Z,87.30
2022-08-17T03:08:28.008Z,89.10
2022-08-17T03:10:54.734Z,87.80
2022-08-17T03:13:22.596Z,89.00
2022-08-17T03:15:50.558Z,90.10
2022-08-17T03:18:25.469Z,88.40
2022-08-17T03:20:56.109Z,87.70
2022-08-17T03:23:25.442Z,86.70
2022-08-17T03:25:53.969Z,86.00
2022-08-17T03:28:22.233Z,85.80
2022-08-17T03:30:51.039Z,85.10
2022-08-17T03:33:18.577Z,85.00
2022-08-17T03:35:45.820Z,85.40
2022-08-17T03:38:15.091Z,86.30
2022-08-17T03:40:56.411Z,88.50
2022-08-17T03:43:27.114Z,86.70
2022-08-17T03:46:28.453Z,86.10
2022-08-17T03:49:17.861Z,86.60
2022-08-17T03:52:03.456Z,88.40
2022-08-17T03:54:48.865Z,86.50
2022-08-17T03:57:16.644Z,88.40
2022-08-17T03:59:43.365Z,90.00
2022-08-17T04:02:17.737Z,92.60
2022-08-17T04:04:44.645Z,92.30
2022-08-17T04:07:11.421Z,91.10
2022-08-17T04:09:38.157Z,90.40
2022-08-17T04:12:05.500Z,90.70
2022-08-17T04:14:51.855Z,89.80
2022-08-17T04:17:28.277Z,90.00
2022-08-17T04:19:55.753Z,90.40
2022-08-17T04:22:32.258Z,91.40
2022-08-17T04:25:05.958Z,90.90
2022-08-17T04:27:32.697Z,91.20
2022-08-17T04:30:00.203Z,90.10
2022-08-17T04:33:00.459Z,91.10
2022-08-17T04:35:18.511Z,92.00
2022-08-17T04:37:45.479Z,91.60
2022-08-17T04:40:30.872Z,90.60
2022-08-17T04:43:07.196Z,91.40
2022-08-17T04:45:34.468Z,92.70
2022-08-17T04:48:01.515Z,92.20
2022-08-17T04:50:28.427Z,93.80
2022-08-17T04:52:55.602Z,93.80
2022-08-17T04:55:22.624Z,94.40
2022-08-17T04:57:49.353Z,93.30
2022-08-17T05:00:16.093Z,93.80
2022-08-17T05:02:51.067Z,92.50
2022-08-17T05:05:28.040Z,92.20
2022-08-17T05:07:56.762Z,94.20
2022-08-17T05:10:27.484Z,95.80
2022-08-17T05:13:05.900Z,95.60
2022-08-17T05:15:36.014Z,94.60
2022-08-17T05:18:02.970Z,95.20
2022-08-17T05:20:30.029Z,93.50
2022-08-17T05:23:00.934Z,94.90
2022-08-17T05:25:32.775Z,93.40
2022-08-17T05:28:02.174Z,93.10
2022-08-17T05:30:31.100Z,93.70
2022-08-17T05:33:03.949Z,94.30
2022-08-17T05:35:33.236Z,93.80
2022-08-17T05:38:00.874Z,92.20
2022-08-17T05:40:32.918Z,92.60
2022-08-17T05:43:17.707Z,92.70
2022-08-17T05:46:17.731Z,92.70
2022-08-17T05:48:47.837Z,92.70
2022-08-17T05:51:39.142Z,93.10
2022-08-17T05:54:33.286Z,93.40
2022-08-17T05:57:02.805Z,94.80
2022-08-17T05:59:51.391Z,94.40
2022-08-17T06:02:27.226Z,93.60
2022-08-17T06:05:29.138Z,93.10
2022-08-17T06:08:10.934Z,93.30
2022-08-17T06:10:58.147Z,93.80
2022-08-17T06:13:31.697Z,92.90
2022-08-17T06:16:33.521Z,92.90
2022-08-17T06:19:10.013Z,92.30
2022-08-17T06:21:42.291Z,92.30
2022-08-17T06:24:23.707Z,92.80
2022-08-17T06:26:52.624Z,93.70
2022-08-17T06:29:30.825Z,94.20
2022-08-17T06:31:57.697Z,92.30
2022-08-17T06:34:24.641Z,91.70
2022-08-17T06:37:16.266Z,91.40
2022-08-17T06:40:07.502Z,90.60
2022-08-17T06:43:04.982Z,91.30
2022-08-17T06:45:49.383Z,91.30
2022-08-17T06:48:27.923Z,91.20
2022-08-17T06:51:08.058Z,93.60
2022-08-17T06:53:45.511Z,93.20
2022-08-17T06:56:21.493Z,92.60
2022-08-17T06:58:49.569Z,92.60
2022-08-17T07:01:21.692Z,91.90
2022-08-17T07:04:06.344Z,91.80
2022-08-17T07:06:47.557Z,92.40
2022-08-17T07:09:37.238Z,91.40
2022-08-17T07:12:19.874Z,92.20
2022-08-17T07:15:22.318Z,93.00
2022-08-17T07:17:49.903Z,93.90
2022-08-17T07:20:22.671Z,93.50
2022-08-17T07:23:06.093Z,93.80
2022-08-17T07:25:33.111Z,95.00
2022-08-17T07:28:02.525Z,93.60
2022-08-17T07:30:45.821Z,94.60
2022-08-17T07:33:23.796Z,94.10
2022-08-17T07:35:53.424Z,95.00
2022-08-17T07:38:26.889Z,95.50
2022-08-17T07:41:03.518Z,94.80
2022-08-17T07:43:39.482Z,94.90
2022-08-17T07:46:44.860Z,94.70
2022-08-17T07:49:12.608Z,94.50
2022-08-17T07:51:45.777Z,95.00
2022-08-17T07:54:15.568Z,96.40
2022-08-17T07:56:48.701Z,95.70
2022-08-17T07:59:24.005Z,94.80
2022-08-17T08:01:57.971Z,94.80
2022-08-17T08:05:00.155Z,95.10
2022-08-17T08:07:21.160Z,96.60
2022-08-17T08:10:09.156Z,96.40
2022-08-17T08:12:41.798Z,96.40
2022-08-17T08:15:17.318Z,94.60
2022-08-17T08:17:47.118Z,95.30
2022-08-17T08:20:42.515Z,95.70
2022-08-17T08:23:11.511Z,96.50
2022-08-17T08:25:50.830Z,97.00
2022-08-17T08:28:45.497Z,96.90
2022-08-17T08:31:27.184Z,97.40
2022-08-17T08:34:53.449Z,96.60
2022-08-17T08:37:19.288Z,96.30
2022-08-17T08:40:02.672Z,95.90
2022-08-17T08:42:35.565Z,94.70
2022-08-17T08:45:07.846Z,94.00
2022-08-17T08:47:41.577Z,93.80
2022-08-17T08:50:46.538Z,92.70
2022-08-17T08:53:31.363Z,93.50
2022-08-17T08:56:31.745Z,94.10
2022-08-17T08:59:11.777Z,92.60
2022-08-17T09:02:03.507Z,93.00
2022-08-17T09:05:12.444Z,92.60
2022-08-17T09:07:54.704Z,93.30
2022-08-17T09:10:26.979Z,93.10
2022-08-17T09:13:10.304Z,92.60
2022-08-17T09:15:59.119Z,92.30
2022-08-17T09:18:59.896Z,92.30
2022-08-17T09:21:48.280Z,91.20
2022-08-17T09:24:37.138Z,92.10
2022-08-17T09:27:22.068Z,91.20
2022-08-17T09:30:09.772Z,91.90
2022-08-17T09:32:55.226Z,92.30
2022-08-17T09:35:36.960Z,92.30
2022-08-17T09:38:07.078Z,91.30
2022-08-17T09:40:54.057Z,91.20
2022-08-17T09:43:41.021Z,91.90
2022-08-17T09:46:15.922Z,91.70
2022-08-17T09:48:57.580Z,91.70
2022-08-17T09:51:41.799Z,91.20
2022-08-17T09:54:44.690Z,91.50
2022-08-17T09:57:35.878Z,91.70
2022-08-17T10:00:16.595Z,90.40
2022-08-17T10:02:53.599Z,92.60
2022-08-17T10:05:47.333Z,93.00
2022-08-17T10:08:55.356Z,92.90
2022-08-17T10:11:52.354Z,92.10
2022-08-17T10:14:43.778Z,93.50
2022-08-17T10:17:18.913Z,94.00
2022-08-17T10:19:55.686Z,93.60
2022-08-17T10:22:54.853Z,93.70
2022-08-17T10:25:54.557Z,93.70
2022-08-17T10:28:29.580Z,93.70
2022-08-17T10:31:31.009Z,92.00
2022-08-17T10:33:48.062Z,91.60
2022-08-17T10:36:55.342Z,92.30
2022-08-17T10:39:50.457Z,92.20
2022-08-17T10:42:30.473Z,92.60
2022-08-17T10:45:15.513Z,91.80
2022-08-17T10:48:05.234Z,92.40
2022-08-17T10:50:56.060Z,92.80
2022-08-17T10:53:31.941Z,92.30
2022-08-17T10:56:14.012Z,91.80
2022-08-17T10:58:53.997Z,92.10
2022-08-17T11:01:34.152Z,91.50
2022-08-17T11:04:21.207Z,91.70
2022-08-17T11:07:02.049Z,91.20
2022-08-17T11:09:58.396Z,91.70
2022-08-17T11:13:03.870Z,91.30
2022-08-17T11:16:09.863Z,90.50
2022-08-17T11:19:08.502Z,90.40
2022-08-17T11:22:03.434Z,90.60
2022-08-17T11:24:43.465Z,89.70
2022-08-17T11:27:27.148Z,90.30
2022-08-17T11:30:05.819Z,90.20
2022-08-17T11:32:47.794Z,90.10
2022-08-17T11:35:21.262Z,90.20
2022-08-17T11:37:50.717Z,89.90
2022-08-17T11:40:35.187Z,90.00
2022-08-17T11:43:25.753Z,90.00
2022-08-17T11:46:16.447Z,90.00
2022-08-17T11:49:10.888Z,90.00
2022-08-17T11:52:00.386Z,89.70
2022-08-17T11:54:33.605Z,88.50
2022-08-17T11:57:26.690Z,91.50
2022-08-17T11:59:59.088Z,91.00
2022-08-17T12:02:32.747Z,91.20
2022-08-17T12:05:12.359Z,90.80
2022-08-17T12:07:47.633Z,90.80
2022-08-17T12:10:21.524Z,90.50
2022-08-17T12:12:51.945Z,90.20
2022-08-17T12:15:30.426Z,90.00
2022-08-17T12:17:58.881Z,90.10
2022-08-17T12:20:36.556Z,90.10
2022-08-17T12:23:22.094Z,90.40
2022-08-17T12:26:03.769Z,91.50
2022-08-17T12:28:33.872Z,91.40
2022-08-17T12:31:05.959Z,92.30
2022-08-17T12:33:33.347Z,91.70
2022-08-17T12:36:08.882Z,91.40
2022-08-17T12:38:38.198Z,91.80
2022-08-17T12:41:27.368Z,93.10
2022-08-17T12:44:32.785Z,93.60
2022-08-17T12:47:22.847Z,91.20
2022-08-17T12:49:52.836Z,94.30
2022-08-17T12:52:29.240Z,93.00
2022-08-17T12:55:00.129Z,93.30
2022-08-17T12:57:32.800Z,94.90
2022-08-17T13:00:12.370Z,92.40
2022-08-17T13:02:52.488Z,91.50
2022-08-17T13:05:30.246Z,92.70
2022-08-17T13:07:59.816Z,93.20
2022-08-17T13:10:32.893Z,93.90
2022-08-17T13:13:05.238Z,92.90
2022-08-17T13:15:35.371Z,94.30
2022-08-17T13:18:04.592Z,96.10
2022-08-17T13:20:32.081Z,96.00
2022-08-17T13:23:01.125Z,95.00
2022-08-17T13:25:29.860Z,95.90
2022-08-17T13:27:56.772Z,95.50
2022-08-17T13:30:28.328Z,95.00
2022-08-17T13:32:56.891Z,96.20
2022-08-17T13:35:40.972Z,96.10
2022-08-17T13:38:15.362Z,95.60
2022-08-17T13:40:50.090Z,95.70
2022-08-17T13:43:45.981Z,95.40
2022-08-17T13:46:20.028Z,94.50
2022-08-17T13:48:56.586Z,93.80
2022-08-17T13:51:36.399Z,95.70
2022-08-17T13:54:05.698Z,97.10
2022-08-17T13:56:55.424Z,97.40
2022-08-17T13:59:53.239Z,99.10
2022-08-17T14:02:22.243Z,98.70
2022-08-17T14:04:49.115Z,97.50
2022-08-17T14:07:19.064Z,96.20
2022-08-17T14:10:01.918Z,96.70
2022-08-17T14:12:31.665Z,98.80
2022-08-17T14:14:58.840Z,97.30
2022-08-17T14:17:28.853Z,97.30
2022-08-17T14:19:55.643Z,96.40
2022-08-17T14:22:30.420Z,96.70
2022-08-17T14:24:58.137Z,96.50
2022-08-17T14:27:28.038Z,96.20
2022-08-17T14:29:56.392Z,96.10
2022-08-17T14:32:29.125Z,96.70
2022-08-17T14:34:57.957Z,97.20
2022-08-17T14:37:27.992Z,96.30
2022-08-17T14:40:00.027Z,97.10
2022-08-17T14:42:30.803Z,95.60
2022-08-17T14:44:59.685Z,97.80
2022-08-17T14:47:26.963Z,97.00
2022-08-17T14:49:53.688Z,95.90
2022-08-17T14:52:21.778Z,95.50
2022-08-17T14:54:52.858Z,95.40
2022-08-17T14:57:24.745Z,97.30
2022-08-17T15:00:01.609Z,98.10
2022-08-17T15:02:30.686Z,98.10
2022-08-17T15:05:05.231Z,97.60
2022-08-17T15:07:32.029Z,98.60
2022-08-17T15:10:02.762Z,99.30
2022-08-17T15:12:34.607Z,97.90
2022-08-17T15:15:04.658Z,97.60
2022-08-17T15:17:45.276Z,97.30
2022-08-17T15:20:19.033Z,97.60
2022-08-17T15:22:49.724Z,97.80
2022-08-17T15:25:19.207Z,96.80
2022-08-17T15:27:46.190Z,97.60
2022-08-17T15:30:13.341Z,97.50
2022-08-17T15:32:50.686Z,97.60
2022-08-17T15:35:26.925Z,97.30
2022-08-17T15:37:56.351Z,97.60
2022-08-17T15:40:23.067Z,97.90
2022-08-17T15:42:51.074Z,97.80
2022-08-17T15:45:24.892Z,98.00
2022-08-17T15:47:53.452Z,97.40
2022-08-17T15:50:20.267Z,96.40
2022-08-17T15:52:47.562Z,97.10
2022-08-17T15:55:15.390Z,97.20
2022-08-17T15:57:42.212Z,97.90
2022-08-17T16:00:10.164Z,96.70
2022-08-17T16:03:44.649Z,97.10
2022-08-17T16:05:27.215Z,96.80
2022-08-17T16:07:54.835Z,97.30
2022-08-17T16:10:22.415Z,97.60
2022-08-17T16:13:01.923Z,97.00
2022-08-17T16:15:30.969Z,97.30
2022-08-17T16:17:57.836Z,97.00
2022-08-17T16:20:26.427Z,96.70
2022-08-17T16:22:54.514Z,96.60
2022-08-17T16:25:38.427Z,97.30
2022-08-17T16:28:15.833Z,96.80
2022-08-17T16:30:43.268Z,96.70
2022-08-17T16:33:15.275Z,97.00
2022-08-17T16:35:42.262Z,96.70
2022-08-17T16:38:09.613Z,96.70
2022-08-17T16:40:36.550Z,96.20
2022-08-17T16:43:06.979Z,96.50
2022-08-17T16:45:36.677Z,97.60
2022-08-17T16:48:03.973Z,97.20
2022-08-17T16:50:31.969Z,97.00
2022-08-17T16:53:11.075Z,97.40
2022-08-17T16:55:38.906Z,97.30
2022-08-17T16:58:06.719Z,96.90
2022-08-17T17:00:34.433Z,96.00
2022-08-17T17:03:19.929Z,95.30
2022-08-17T17:06:06.408Z,96.80
2022-08-17T17:08:54.595Z,96.10
2022-08-17T17:11:33.715Z,96.50
2022-08-17T17:14:05.385Z,97.30
2022-08-17T17:16:45.623Z,96.70
2022-08-17T17:19:26.325Z,95.80
2022-08-17T17:22:20.210Z,96.70
2022-08-17T17:25:19.125Z,96.10
2022-08-17T17:28:02.673Z,95.40
2022-08-17T17:30:38.460Z,96.10
2022-08-17T17:33:15.131Z,95.80
2022-08-17T17:36:06.975Z,95.50
2022-08-17T17:38:49.595Z,95.80
2022-08-17T17:41:26.299Z,94.70
2022-08-17T17:44:01.684Z,95.00
2022-08-17T17:46:37.959Z,94.90
2022-08-17T17:49:06.065Z,94.80
2022-08-17T17:52:08.055Z,94.70
2022-08-17T17:54:55.708Z,95.50
2022-08-17T17:57:39.181Z,94.50
2022-08-17T18:00:24.475Z,94.90
2022-08-17T18:03:28.596Z,94.70
2022-08-17T18:06:17.358Z,96.30
2022-08-17T18:08:49.209Z,97.60
2022-08-17T18:11:25.047Z,97.10
2022-08-17T18:14:01.073Z,95.70
2022-08-17T18:16:29.663Z,95.30
2022-08-17T18:18:59.711Z,95.10
2022-08-17T18:21:37.906Z,95.20
2022-08-17T18:24:07.888Z,95.90
2022-08-17T18:26:53.735Z,95.00
2022-08-17T18:29:36.493Z,95.20
2022-08-17T18:32:22.310Z,94.90
2022-08-17T18:35:02.128Z,95.20
2022-08-17T18:37:42.753Z,94.90
2022-08-17T18:40:19.448Z,95.10
2022-08-17T18:43:24.812Z,95.00
2022-08-17T18:45:54.130Z,95.00
2022-08-17T18:48:36.841Z,95.20
2022-08-17T18:51:42.156Z,95.40
2022-08-17T18:54:20.923Z,94.40
2022-08-17T18:57:00.567Z,95.30
2022-08-17T18:59:48.615Z,95.30
2022-08-17T19:02:43.854Z,94.90
2022-08-17T19:05:45.772Z,94.90
2022-08-17T19:08:35.568Z,95.20
2022-08-17T19:11:27.313Z,95.20
2022-08-17T19:14:07.947Z,93.40
2022-08-17T19:16:45.068Z,94.80
2022-08-17T19:19:19.577Z,94.60
2022-08-17T19:21:56.221Z,94.90
2022-08-17T19:24:26.337Z,94.50
2022-08-17T19:27:12.390Z,94.90
2022-08-17T19:29:46.766Z,94.80
2022-08-17T19:32:17.040Z,94.90
2022-08-17T19:34:44.467Z,94.80
2022-08-17T19:37:45.184Z,94.70
2022-08-17T19:40:29.220Z,94.30
2022-08-17T19:43:02.887Z,94.40
2022-08-17T19:45:40.042Z,94.50
2022-08-17T19:48:12.493Z,94.80
2022-08-17T19:50:46.192Z,94.20
2022-08-17T19:54:15.031Z,94.40
2022-08-17T19:57:01.665Z,94.60
2022-08-17T20:00:02.856Z,94.80
2022-08-17T20:02:41.348Z,95.60
2022-08-17T20:05:22.699Z,95.30
2022-08-17T20:08:07.708Z,95.30
2022-08-17T20:11:02.618Z,94.80
2022-08-17T20:13:40.999Z,94.90
2022-08-17T20:16:10.102Z,94.50
2022-08-17T20:18:47.628Z,94.40
2022-08-17T20:21:23.883Z,94.30
2022-08-17T20:24:05.465Z,94.60
2022-08-17T20:26:58.725Z,94.40
2022-08-17T20:29:51.539Z,95.10
2022-08-17T20:32:25.167Z,95.20
2022-08-17T20:35:22.401Z,95.70
2022-08-17T20:38:03.225Z,95.60
2022-08-17T20:40:39.567Z,95.50
2022-08-17T20:43:34.242Z,95.80
2022-08-17T20:46:12.929Z,95.60
2022-08-17T20:48:45.953Z,96.50
2022-08-17T20:51:27.265Z,98.00
2022-08-17T20:53:54.538Z,96.40
2022-08-17T20:57:00.934Z,97.00
2022-08-17T20:59:28.571Z,95.90
2022-08-17T21:02:12.386Z,96.70
2022-08-17T21:04:52.962Z,95.80
2022-08-17T21:07:29.123Z,96.30
2022-08-17T21:10:28.046Z,96.00
2022-08-17T21:13:04.589Z,95.90
2022-08-17T21:15:57.027Z,95.80
2022-08-17T21:18:56.713Z,95.60
2022-08-17T21:21:48.436Z,95.90
2022-08-17T21:24:34.690Z,95.80
2022-08-17T21:27:20.362Z,95.20
2022-08-17T21:30:05.194Z,95.90
2022-08-17T21:32:41.164Z,96.00
2022-08-17T21:35:22.272Z,95.40
2022-08-17T21:37:50.611Z,96.20
2022-08-17T21:40:24.971Z,95.50
2022-08-17T21:42:59.121Z,94.60
2022-08-17T21:45:25.771Z,95.80
2022-08-17T21:48:15.383Z,95.50
2022-08-17T21:50:45.929Z,95.70
2022-08-17T21:53:25.379Z,95.90
2022-08-17T21:55:53.855Z,95.50
2022-08-17T21:58:33.235Z,95.30
2022-08-17T22:01:13.767Z,95.30
2022-08-17T22:03:41.242Z,95.20
2022-08-17T22:06:38.087Z,95.20
2022-08-17T22:09:04.796Z,95.00
2022-08-17T22:11:32.015Z,95.10
2022-08-17T22:14:05.253Z,95.00
2022-08-17T22:16:32.850Z,95.00
2022-08-17T22:18:59.713Z,95.00
2022-08-17T22:21:26.877Z,95.00
2022-08-17T22:24:07.043Z,95.00
2022-08-17T22:26:52.246Z,95.00
2022-08-17T22:29:57.209Z,95.00
2022-08-17T22:32:43.580Z,95.00
2022-08-17T22:35:35.994Z,94.90
2022-08-17T22:38:21.100Z,94.80
2022-08-17T22:40:54.474Z,94.80
2022-08-17T22:43:26.334Z,94.80
2022-08-17T22:45:57.345Z,94.80
2022-08-17T22:48:27.723Z,94.70
2022-08-17T22:51:12.700Z,94.70
2022-08-17T22:54:18.700Z,94.70
2022-08-17T22:57:19.386Z,94.70
2022-08-17T22:59:49.616Z,94.70
2022-08-17T23:02:25.423Z,94.70
2022-08-17T23:05:12.981Z,94.60
2022-08-17T23:07:42.521Z,94.60
2022-08-17T23:10:11.297Z,94.60
2022-08-17T23:12:39.696Z,94.70
2022-08-17T23:15:16.976Z,94.60
2022-08-17T23:17:48.135Z,94.60
2022-08-17T23:20:17.566Z,94.50
2022-08-17T23:22:52.145Z,94.40
2022-08-17T23:25:27.900Z,94.30
2022-08-17T23:27:55.405Z,94.30
2022-08-17T23:30:25.693Z,94.30
2022-08-17T23:32:54.294Z,94.40
2022-08-17T23:35:40.080Z,94.40
2022-08-17T23:38:08.987Z,94.50
2022-08-17T23:40:35.703Z,94.50
2022-08-17T23:43:09.835Z,94.50
2022-08-17T23:45:53.965Z,94.40
2022-08-17T23:48:35.031Z,94.40
2022-08-17T23:51:12.358Z,94.30
2022-08-17T23:53:47.927Z,94.40
2022-08-17T23:56:15.332Z,94.40
2022-08-17T23:58:43.400Z,94.40
